Atherton, California
Current Conditions -  °F | °C
As of 1:47 PM on Thursday 23 Oct 2014 (Local Time) from KPAO Reporting Station
Broken Clouds Broken Clouds  
Wind Chill: 73°   Ceiling: 12000
Heat Index: 73°   Visibility: 15mi
Dew Point: 61°   Wind: 12mph
Humidity: 65%   Direction: 10°N
Pressure: 30.03"   Gusts: NA
Location:  37.46°N, 122.19°W
Report Text: KPAO 232047Z 01010KT 15SM FEW050 BKN120 23/16 A3003
Loading
Personal Weather Stations






























Interactive Weather Map
Tropical Storm Tracking
New forecast layout! Learn more

10-Day Weather Forecast

Advertisements
Track Severe Weather on mobile